PWSweather.com
Personal Weather Stations
Station Observations
COONRAPIDS
Minneapolis, MN 55433

Minneapolis, MN 55433

Lat: 45.187721, Lon: -93.36828

Elevation: 898

Station Type: Davis Vantage Pro 2

High Low Average
Temperature 37.1°F2.8°C 33.4°F0.8°C 35.7°F2.1°C
Dew Point 33.0°F0.6°C 23.7°F-4.6°C 31.0°F-0.6°C
Winds 4.6 mph 7.4 kmh Calm Calm 1.0 mph S1.6 kmh S
Wind Gusts 13.8 mph22.2 kmh -- 3.0 mph4.8 kmh
Humidity 90% 61% 83%
Pressure 29.73 in1006.8 mb 29.49 in998.6 mb -
Precipitation 0.01 in0.3 mm - -
Hour Temp Dew Point Humidity Winds Wind Gusts Pressure Precip Precip Rate Daily Precip Total
12:00 AM 35.8°F2.1°C 23.7°F-4.6°C 61% 1.2 mph S1.9 kmh S 6.9 mph11.1 kmh 29.72 in1006.4 mb - 0.00 in0.0 mm 0.00 in0.0 mm
12:10 AM 35.6°F2.0°C 23.9°F-4.5°C 62% Calm Calm -- 29.72 in1006.4 mb - 0.00 in0.0 mm 0.00 in0.0 mm
12:20 AM 35.4°F1.9°C 24.0°F-4.4°C 63% 1.2 mph S1.9 kmh S 4.6 mph7.4 kmh 29.73 in1006.8 mb - 0.00 in0.0 mm 0.00 in0.0 mm
12:30 AM 35.1°F1.7°C 24.2°F-4.3°C 64% Calm Calm 4.6 mph7.4 kmh 29.73 in1006.8 mb - 0.00 in0.0 mm 0.00 in0.0 mm
12:40 AM 35.0°F1.7°C 24.4°F-4.2°C 65% Calm Calm -- 29.73 in1006.8 mb - 0.00 in0.0 mm 0.00 in0.0 mm
12:50 AM 34.7°F1.5°C 24.5°F-4.2°C 66% 1.2 mph S1.9 kmh S 3.5 mph5.6 kmh 29.71 in1006.1 mb - 0.00 in0.0 mm 0.00 in0.0 mm
01:00 AM 34.4°F1.3°C 24.6°F-4.1°C 67% Calm Calm -- 29.71 in1006.1 mb - 0.00 in0.0 mm 0.00 in0.0 mm
01:10 AM 34.1°F1.2°C 24.6°F-4.1°C 68% Calm Calm -- 29.70 in1005.8 mb - 0.00 in0.0 mm 0.00 in0.0 mm
01:20 AM 33.9°F1.1°C 24.8°F-4.0°C 69% Calm Calm -- 29.70 in1005.8 mb - 0.00 in0.0 mm 0.00 in0.0 mm
01:30 AM 33.8°F1.0°C 25.1°F-3.8°C 70% Calm Calm -- 29.69 in1005.4 mb - 0.00 in0.0 mm 0.00 in0.0 mm
01:40 AM 33.9°F1.1°C 25.5°F-3.6°C 71% Calm Calm 3.5 mph5.6 kmh 29.69 in1005.4 mb - 0.00 in0.0 mm 0.00 in0.0 mm
01:50 AM 33.7°F0.9°C 25.6°F-3.6°C 72% Calm Calm 3.5 mph5.6 kmh 29.69 in1005.4 mb - 0.00 in0.0 mm 0.00 in0.0 mm
02:00 AM 33.5°F0.8°C 25.8°F-3.4°C 73% Calm Calm -- 29.68 in1005.1 mb - 0.00 in0.0 mm 0.00 in0.0 mm
02:10 AM 33.4°F0.8°C 26.0°F-3.3°C 74% Calm Calm -- 29.68 in1005.1 mb - 0.00 in0.0 mm 0.00 in0.0 mm
02:20 AM 33.5°F0.8°C 26.4°F-3.1°C 75% 1.2 mph SSE1.9 kmh SSE 3.5 mph5.6 kmh 29.68 in1005.1 mb - 0.00 in0.0 mm 0.00 in0.0 mm
02:30 AM 33.7°F0.9°C 26.9°F-2.8°C 76% Calm Calm -- 29.68 in1005.1 mb - 0.00 in0.0 mm 0.00 in0.0 mm
02:40 AM 33.9°F1.1°C 27.4°F-2.6°C 77% 2.3 mph S3.7 kmh S 1.2 mph1.9 kmh 29.67 in1004.7 mb - 0.00 in0.0 mm 0.00 in0.0 mm
02:50 AM 34.2°F1.2°C 27.7°F-2.4°C 77% 4.6 mph S7.4 kmh S 13.8 mph22.2 kmh 29.67 in1004.7 mb - 0.00 in0.0 mm 0.00 in0.0 mm
03:00 AM 34.3°F1.3°C 28.2°F-2.1°C 78% 2.3 mph S3.7 kmh S 8.1 mph13.0 kmh 29.66 in1004.4 mb - 0.00 in0.0 mm 0.00 in0.0 mm
03:10 AM 34.5°F1.4°C 28.3°F-2.1°C 78% 1.2 mph S1.9 kmh S 5.8 mph9.3 kmh 29.66 in1004.4 mb - 0.00 in0.0 mm 0.00 in0.0 mm
03:20 AM 34.5°F1.4°C 28.6°F-1.9°C 79% 2.3 mph S3.7 kmh S 3.5 mph5.6 kmh 29.66 in1004.4 mb - 0.00 in0.0 mm 0.00 in0.0 mm
03:30 AM 34.5°F1.4°C 28.7°F-1.8°C 79% Calm Calm 4.6 mph7.4 kmh 29.65 in1004.1 mb - 0.00 in0.0 mm 0.00 in0.0 mm
03:40 AM 34.5°F1.4°C 28.7°F-1.8°C 79% Calm Calm -- 29.64 in1003.7 mb - 0.00 in0.0 mm 0.00 in0.0 mm
03:50 AM 34.4°F1.3°C 28.9°F-1.7°C 80% 2.3 mph SSE3.7 kmh SSE 3.5 mph5.6 kmh 29.63 in1003.4 mb - 0.00 in0.0 mm 0.00 in0.0 mm
04:00 AM 34.5°F1.4°C 29.0°F-1.7°C 80% 2.3 mph S3.7 kmh S 5.8 mph9.3 kmh 29.63 in1003.4 mb - 0.00 in0.0 mm 0.00 in0.0 mm
04:10 AM 34.6°F1.4°C 29.1°F-1.6°C 80% 1.2 mph S1.9 kmh S 4.6 mph7.4 kmh 29.63 in1003.4 mb - 0.00 in0.0 mm 0.00 in0.0 mm
04:20 AM 34.7°F1.5°C 29.5°F-1.4°C 81% 3.5 mph S5.6 kmh S 5.8 mph9.3 kmh 29.62 in1003.0 mb - 0.00 in0.0 mm 0.00 in0.0 mm
04:30 AM 34.8°F1.6°C 29.6°F-1.3°C 81% 4.6 mph SSE7.4 kmh SSE 8.1 mph13.0 kmh 29.61 in1002.7 mb - 0.00 in0.0 mm 0.00 in0.0 mm
04:40 AM 34.8°F1.6°C 29.6°F-1.3°C 81% 1.2 mph S1.9 kmh S 4.6 mph7.4 kmh 29.61 in1002.7 mb - 0.00 in0.0 mm 0.00 in0.0 mm
04:50 AM 34.8°F1.6°C 29.6°F-1.3°C 81% 1.2 mph S1.9 kmh S 4.6 mph7.4 kmh 29.60 in1002.4 mb - 0.00 in0.0 mm 0.00 in0.0 mm
05:00 AM 34.8°F1.6°C 29.6°F-1.3°C 81% 2.3 mph S3.7 kmh S 3.5 mph5.6 kmh 29.60 in1002.4 mb - 0.00 in0.0 mm 0.00 in0.0 mm
05:10 AM 34.9°F1.6°C 30.0°F-1.1°C 82% 3.5 mph S5.6 kmh S 6.9 mph11.1 kmh 29.59 in1002.0 mb - 0.00 in0.0 mm 0.00 in0.0 mm
05:20 AM 35.0°F1.7°C 30.1°F-1.1°C 82% 2.3 mph SSE3.7 kmh SSE 3.5 mph5.6 kmh 29.59 in1002.0 mb - 0.00 in0.0 mm 0.00 in0.0 mm
05:30 AM 34.9°F1.6°C 30.0°F-1.1°C 82% 1.2 mph SSE1.9 kmh SSE 3.5 mph5.6 kmh 29.58 in1001.7 mb - 0.00 in0.0 mm 0.00 in0.0 mm
05:40 AM 35.0°F1.7°C 30.1°F-1.1°C 82% 1.2 mph SSE1.9 kmh SSE 3.5 mph5.6 kmh 29.59 in1002.0 mb - 0.00 in0.0 mm 0.00 in0.0 mm
05:50 AM 35.1°F1.7°C 30.5°F-0.8°C 83% 4.6 mph S7.4 kmh S 6.9 mph11.1 kmh 29.58 in1001.7 mb - 0.00 in0.0 mm 0.00 in0.0 mm
06:00 AM 35.1°F1.7°C 30.5°F-0.8°C 83% 1.2 mph S1.9 kmh S 3.5 mph5.6 kmh 29.59 in1002.0 mb - 0.00 in0.0 mm 0.00 in0.0 mm
06:10 AM 35.2°F1.8°C 30.6°F-0.8°C 83% Calm Calm -- 29.59 in1002.0 mb - 0.00 in0.0 mm 0.00 in0.0 mm
06:20 AM 35.2°F1.8°C 30.6°F-0.8°C 83% 2.3 mph S3.7 kmh S 2.3 mph3.7 kmh 29.59 in1002.0 mb - 0.00 in0.0 mm 0.00 in0.0 mm
06:30 AM 35.4°F1.9°C 30.8°F-0.7°C 83% 1.2 mph S1.9 kmh S 6.9 mph11.1 kmh 29.58 in1001.7 mb - 0.00 in0.0 mm 0.00 in0.0 mm
06:40 AM 35.4°F1.9°C 30.8°F-0.7°C 83% Calm Calm 3.5 mph5.6 kmh 29.57 in1001.4 mb - 0.00 in0.0 mm 0.00 in0.0 mm
06:50 AM 35.4°F1.9°C 30.8°F-0.7°C 83% 3.5 mph S5.6 kmh S 6.9 mph11.1 kmh 29.57 in1001.4 mb - 0.00 in0.0 mm 0.00 in0.0 mm
07:00 AM 35.4°F1.9°C 30.8°F-0.7°C 83% 2.3 mph S3.7 kmh S 4.6 mph7.4 kmh 29.57 in1001.4 mb - 0.00 in0.0 mm 0.00 in0.0 mm
07:10 AM 35.5°F1.9°C 30.8°F-0.7°C 83% 4.6 mph S7.4 kmh S 10.4 mph16.7 kmh 29.57 in1001.4 mb - 0.00 in0.0 mm 0.00 in0.0 mm
07:20 AM 35.5°F1.9°C 30.8°F-0.7°C 83% 2.3 mph S3.7 kmh S 4.6 mph7.4 kmh 29.57 in1001.4 mb - 0.00 in0.0 mm 0.00 in0.0 mm
07:30 AM 35.6°F2.0°C 30.9°F-0.6°C 83% 3.5 mph S5.6 kmh S 9.2 mph14.8 kmh 29.57 in1001.4 mb - 0.00 in0.0 mm 0.00 in0.0 mm
07:40 AM 35.7°F2.1°C 31.0°F-0.6°C 83% Calm Calm 3.5 mph5.6 kmh 29.57 in1001.4 mb - 0.00 in0.0 mm 0.00 in0.0 mm
07:50 AM 35.7°F2.1°C 31.0°F-0.6°C 83% 1.2 mph S1.9 kmh S 3.5 mph5.6 kmh 29.57 in1001.4 mb - 0.00 in0.0 mm 0.00 in0.0 mm
08:00 AM 35.7°F2.1°C 31.0°F-0.6°C 83% 4.6 mph S7.4 kmh S 6.9 mph11.1 kmh 29.57 in1001.4 mb - 0.00 in0.0 mm 0.00 in0.0 mm
08:10 AM 35.8°F2.1°C 31.2°F-0.4°C 83% 3.5 mph S5.6 kmh S 8.1 mph13.0 kmh 29.57 in1001.4 mb - 0.00 in0.0 mm 0.00 in0.0 mm
08:20 AM 35.8°F2.1°C 31.1°F-0.5°C 83% 2.3 mph S3.7 kmh S 6.9 mph11.1 kmh 29.57 in1001.4 mb - 0.00 in0.0 mm 0.00 in0.0 mm
08:30 AM 35.9°F2.2°C 31.2°F-0.4°C 83% 3.5 mph S5.6 kmh S 6.9 mph11.1 kmh 29.57 in1001.4 mb - 0.00 in0.0 mm 0.00 in0.0 mm
08:40 AM 35.9°F2.2°C 31.2°F-0.4°C 83% 3.5 mph S5.6 kmh S 6.9 mph11.1 kmh 29.58 in1001.7 mb - 0.00 in0.0 mm 0.00 in0.0 mm
08:50 AM 35.9°F2.2°C 31.5°F-0.3°C 84% 1.2 mph S1.9 kmh S 4.6 mph7.4 kmh 29.58 in1001.7 mb - 0.00 in0.0 mm 0.00 in0.0 mm
09:00 AM 35.9°F2.2°C 31.5°F-0.3°C 84% 3.5 mph S5.6 kmh S 6.9 mph11.1 kmh 29.57 in1001.4 mb - 0.00 in0.0 mm 0.00 in0.0 mm
09:10 AM 35.8°F2.1°C 31.4°F-0.3°C 84% 1.2 mph S1.9 kmh S 3.5 mph5.6 kmh 29.57 in1001.4 mb - 0.00 in0.0 mm 0.00 in0.0 mm
09:20 AM 35.9°F2.2°C 31.5°F-0.3°C 84% 3.5 mph S5.6 kmh S 6.9 mph11.1 kmh 29.57 in1001.4 mb - 0.00 in0.0 mm 0.00 in0.0 mm
09:30 AM 35.9°F2.2°C 31.5°F-0.3°C 84% 3.5 mph S5.6 kmh S 9.2 mph14.8 kmh 29.58 in1001.7 mb - 0.00 in0.0 mm 0.00 in0.0 mm
09:40 AM 36.0°F2.2°C 31.6°F-0.2°C 84% Calm Calm 3.5 mph5.6 kmh 29.58 in1001.7 mb - 0.00 in0.0 mm 0.00 in0.0 mm
09:50 AM 36.0°F2.2°C 31.6°F-0.2°C 84% 2.3 mph S3.7 kmh S 10.4 mph16.7 kmh 29.57 in1001.4 mb - 0.00 in0.0 mm 0.00 in0.0 mm
10:00 AM 36.1°F2.3°C 31.7°F-0.2°C 84% Calm Calm 8.1 mph13.0 kmh 29.57 in1001.4 mb - 0.00 in0.0 mm 0.00 in0.0 mm
10:10 AM 36.1°F2.3°C 31.7°F-0.2°C 84% 2.3 mph S3.7 kmh S 6.9 mph11.1 kmh 29.57 in1001.4 mb - 0.00 in0.0 mm 0.00 in0.0 mm
10:20 AM 36.2°F2.3°C 31.8°F-0.1°C 84% 2.3 mph S3.7 kmh S 6.9 mph11.1 kmh 29.57 in1001.4 mb - 0.00 in0.0 mm 0.00 in0.0 mm
10:30 AM 36.3°F2.4°C 31.9°F-0.1°C 84% 2.3 mph SSW3.7 kmh SSW 4.6 mph7.4 kmh 29.58 in1001.7 mb - 0.00 in0.0 mm 0.00 in0.0 mm
10:40 AM 36.3°F2.4°C 31.9°F-0.1°C 84% 2.3 mph S3.7 kmh S 3.5 mph5.6 kmh 29.58 in1001.7 mb - 0.00 in0.0 mm 0.00 in0.0 mm
10:50 AM 36.3°F2.4°C 31.9°F-0.1°C 84% 4.6 mph S7.4 kmh S 8.1 mph13.0 kmh 29.57 in1001.4 mb - 0.00 in0.0 mm 0.00 in0.0 mm
11:00 AM 36.4°F2.4°C 32.0°F0.0°C 84% 2.3 mph S3.7 kmh S 6.9 mph11.1 kmh 29.57 in1001.4 mb - 0.00 in0.0 mm 0.00 in0.0 mm
11:10 AM 36.3°F2.4°C 31.9°F-0.1°C 84% 3.5 mph S5.6 kmh S 4.6 mph7.4 kmh 29.56 in1001.0 mb - 0.00 in0.0 mm 0.00 in0.0 mm
11:20 AM 36.3°F2.4°C 31.9°F-0.1°C 84% Calm Calm 8.1 mph13.0 kmh 29.56 in1001.0 mb - 0.00 in0.0 mm 0.00 in0.0 mm
11:30 AM 36.4°F2.4°C 32.0°F0.0°C 84% 4.6 mph S7.4 kmh S 5.8 mph9.3 kmh 29.55 in1000.7 mb - 0.00 in0.0 mm 0.00 in0.0 mm
11:40 AM 36.4°F2.4°C 32.1°F0.1°C 84% 4.6 mph S7.4 kmh S 10.4 mph16.7 kmh 29.55 in1000.7 mb - 0.00 in0.0 mm 0.00 in0.0 mm
11:50 AM 36.6°F2.6°C 32.2°F0.1°C 84% 2.3 mph S3.7 kmh S 6.9 mph11.1 kmh 29.55 in1000.7 mb - 0.00 in0.0 mm 0.00 in0.0 mm
12:00 PM 36.7°F2.6°C 32.3°F0.2°C 84% 2.3 mph S3.7 kmh S 5.8 mph9.3 kmh 29.54 in1000.3 mb - 0.00 in0.0 mm 0.00 in0.0 mm
12:10 PM 36.6°F2.6°C 32.2°F0.1°C 84% 2.3 mph S3.7 kmh S 6.9 mph11.1 kmh 29.54 in1000.3 mb - 0.00 in0.0 mm 0.00 in0.0 mm
12:20 PM 36.8°F2.7°C 32.4°F0.2°C 84% 2.3 mph S3.7 kmh S 5.8 mph9.3 kmh 29.54 in1000.3 mb - 0.00 in0.0 mm 0.00 in0.0 mm
12:30 PM 36.7°F2.6°C 32.3°F0.2°C 84% Calm Calm 4.6 mph7.4 kmh 29.53 in1000.0 mb - 0.00 in0.0 mm 0.00 in0.0 mm
12:40 PM 36.7°F2.6°C 32.3°F0.2°C 84% Calm Calm 3.5 mph5.6 kmh 29.52 in999.7 mb - 0.00 in0.0 mm 0.00 in0.0 mm
12:50 PM 36.8°F2.7°C 32.4°F0.2°C 84% Calm Calm 3.5 mph5.6 kmh 29.52 in999.7 mb - 0.00 in0.0 mm 0.00 in0.0 mm
01:00 PM 36.9°F2.7°C 32.5°F0.3°C 84% Calm Calm -- 29.52 in999.7 mb - 0.00 in0.0 mm 0.00 in0.0 mm
01:10 PM 36.8°F2.7°C 32.7°F0.4°C 85% Calm Calm 4.6 mph7.4 kmh 29.52 in999.7 mb - 0.00 in0.0 mm 0.00 in0.0 mm
01:20 PM 36.8°F2.7°C 32.7°F0.4°C 85% Calm Calm -- 29.51 in999.3 mb - 0.00 in0.0 mm 0.00 in0.0 mm
01:30 PM 36.9°F2.7°C 32.8°F0.4°C 85% Calm Calm -- 29.51 in999.3 mb - 0.00 in0.0 mm 0.00 in0.0 mm
01:40 PM 36.9°F2.7°C 32.8°F0.4°C 85% 1.2 mph S1.9 kmh S 3.5 mph5.6 kmh 29.50 in999.0 mb - 0.00 in0.0 mm 0.00 in0.0 mm
01:50 PM 37.0°F2.8°C 32.9°F0.5°C 85% 1.2 mph S1.9 kmh S 3.5 mph5.6 kmh 29.50 in999.0 mb - 0.00 in0.0 mm 0.00 in0.0 mm
02:00 PM 37.0°F2.8°C 32.9°F0.5°C 85% Calm Calm 3.5 mph5.6 kmh 29.50 in999.0 mb - 0.00 in0.0 mm 0.00 in0.0 mm
02:10 PM 37.1°F2.8°C 33.0°F0.6°C 85% Calm Calm -- 29.49 in998.6 mb - 0.00 in0.0 mm 0.00 in0.0 mm
02:20 PM 37.1°F2.8°C 33.0°F0.6°C 85% 2.3 mph SSW3.7 kmh SSW 3.5 mph5.6 kmh 29.49 in998.6 mb - 0.00 in0.0 mm 0.00 in0.0 mm
02:30 PM 37.1°F2.8°C 33.0°F0.6°C 85% 1.2 mph S1.9 kmh S 4.6 mph7.4 kmh 29.50 in999.0 mb - 0.00 in0.0 mm 0.00 in0.0 mm
02:40 PM 37.0°F2.8°C 32.9°F0.5°C 85% Calm Calm -- 29.49 in998.6 mb - 0.00 in0.0 mm 0.00 in0.0 mm
02:50 PM 37.0°F2.8°C 32.9°F0.5°C 85% 1.2 mph SSE1.9 kmh SSE 3.5 mph5.6 kmh 29.50 in999.0 mb - 0.00 in0.0 mm 0.00 in0.0 mm
03:00 PM 37.0°F2.8°C 32.9°F0.5°C 85% Calm Calm -- 29.49 in998.6 mb - 0.00 in0.0 mm 0.00 in0.0 mm
03:10 PM 36.9°F2.7°C 32.8°F0.4°C 85% Calm Calm -- 29.49 in998.6 mb - 0.00 in0.0 mm 0.00 in0.0 mm
03:20 PM 36.8°F2.7°C 32.8°F0.4°C 85% Calm Calm -- 29.50 in999.0 mb - 0.00 in0.0 mm 0.00 in0.0 mm
03:30 PM 36.8°F2.7°C 32.7°F0.4°C 85% Calm Calm -- 29.50 in999.0 mb - 0.00 in0.0 mm 0.00 in0.0 mm
03:40 PM 36.8°F2.7°C 33.0°F0.6°C 86% Calm Calm -- 29.51 in999.3 mb - 0.00 in0.0 mm 0.00 in0.0 mm
03:50 PM 36.7°F2.6°C 32.9°F0.5°C 86% Calm Calm -- 29.51 in999.3 mb - 0.00 in0.0 mm 0.00 in0.0 mm
04:00 PM 36.8°F2.7°C 33.0°F0.6°C 86% Calm Calm -- 29.51 in999.3 mb - 0.00 in0.0 mm 0.00 in0.0 mm
04:10 PM 36.7°F2.6°C 32.9°F0.5°C 86% Calm Calm -- 29.52 in999.7 mb - 0.00 in0.0 mm 0.00 in0.0 mm
04:20 PM 36.6°F2.6°C 32.8°F0.4°C 86% Calm Calm -- 29.52 in999.7 mb - 0.00 in0.0 mm 0.00 in0.0 mm
04:30 PM 36.6°F2.6°C 32.8°F0.4°C 86% Calm Calm -- 29.52 in999.7 mb - 0.00 in0.0 mm 0.00 in0.0 mm
04:40 PM 36.5°F2.5°C 32.7°F0.4°C 86% Calm Calm -- 29.52 in999.7 mb - 0.00 in0.0 mm 0.00 in0.0 mm
04:50 PM 36.5°F2.5°C 33.0°F0.6°C 87% Calm Calm -- 29.53 in1000.0 mb - 0.00 in0.0 mm 0.00 in0.0 mm
05:00 PM 36.4°F2.4°C 32.9°F0.5°C 87% Calm Calm -- 29.53 in1000.0 mb - 0.00 in0.0 mm 0.00 in0.0 mm
05:10 PM 36.3°F2.4°C 32.8°F0.4°C 87% Calm Calm -- 29.53 in1000.0 mb - 0.00 in0.0 mm 0.00 in0.0 mm
05:20 PM 36.2°F2.3°C 32.7°F0.4°C 87% Calm Calm -- 29.53 in1000.0 mb - 0.00 in0.0 mm 0.00 in0.0 mm
05:30 PM 36.1°F2.3°C 32.6°F0.3°C 87% Calm Calm -- 29.53 in1000.0 mb - 0.00 in0.0 mm 0.00 in0.0 mm
05:40 PM 36.1°F2.3°C 32.8°F0.4°C 88% Calm Calm -- 29.52 in999.7 mb - 0.00 in0.0 mm 0.00 in0.0 mm
05:50 PM 36.0°F2.2°C 32.8°F0.4°C 88% Calm Calm -- 29.52 in999.7 mb - 0.00 in0.0 mm 0.00 in0.0 mm
06:00 PM 35.9°F2.2°C 32.7°F0.4°C 88% Calm Calm -- 29.52 in999.7 mb - 0.00 in0.0 mm 0.00 in0.0 mm
06:10 PM 35.9°F2.2°C 32.7°F0.4°C 88% Calm Calm -- 29.52 in999.7 mb - 0.00 in0.0 mm 0.00 in0.0 mm
06:20 PM 35.9°F2.2°C 32.7°F0.4°C 88% Calm Calm -- 29.52 in999.7 mb - 0.00 in0.0 mm 0.00 in0.0 mm
06:30 PM 35.8°F2.1°C 32.6°F0.3°C 88% Calm Calm -- 29.52 in999.7 mb - 0.00 in0.0 mm 0.00 in0.0 mm
06:40 PM 35.8°F2.1°C 32.6°F0.3°C 88% Calm Calm -- 29.53 in1000.0 mb - 0.00 in0.0 mm 0.00 in0.0 mm
06:50 PM 35.8°F2.1°C 32.9°F0.5°C 89% Calm Calm -- 29.53 in1000.0 mb - 0.00 in0.0 mm 0.00 in0.0 mm
07:00 PM 35.7°F2.1°C 32.5°F0.3°C 88% Calm Calm -- 29.54 in1000.3 mb - 0.00 in0.0 mm 0.00 in0.0 mm
07:10 PM 35.6°F2.0°C 32.7°F0.4°C 89% Calm Calm -- 29.53 in1000.0 mb - 0.00 in0.0 mm 0.00 in0.0 mm
07:20 PM 35.7°F2.1°C 32.8°F0.4°C 89% Calm Calm -- 29.54 in1000.3 mb - 0.00 in0.0 mm 0.00 in0.0 mm
07:30 PM 35.6°F2.0°C 32.7°F0.4°C 89% Calm Calm -- 29.54 in1000.3 mb - 0.00 in0.0 mm 0.00 in0.0 mm
07:40 PM 35.6°F2.0°C 32.7°F0.4°C 89% Calm Calm -- 29.54 in1000.3 mb - 0.00 in0.0 mm 0.00 in0.0 mm
07:50 PM 35.6°F2.0°C 32.6°F0.3°C 89% Calm Calm -- 29.54 in1000.3 mb - 0.00 in0.0 mm 0.00 in0.0 mm
08:00 PM 35.5°F1.9°C 32.6°F0.3°C 89% Calm Calm -- 29.54 in1000.3 mb - 0.00 in0.0 mm 0.00 in0.0 mm
08:10 PM 35.5°F1.9°C 32.6°F0.3°C 89% Calm Calm -- 29.54 in1000.3 mb - 0.00 in0.0 mm 0.00 in0.0 mm
08:20 PM 35.5°F1.9°C 32.6°F0.3°C 89% Calm Calm -- 29.54 in1000.3 mb - 0.00 in0.0 mm 0.00 in0.0 mm
08:30 PM 35.4°F1.9°C 32.5°F0.3°C 89% Calm Calm -- 29.54 in1000.3 mb - 0.00 in0.0 mm 0.00 in0.0 mm
08:40 PM 35.5°F1.9°C 32.5°F0.3°C 89% Calm Calm -- 29.53 in1000.0 mb - 0.00 in0.0 mm 0.00 in0.0 mm
08:50 PM 35.5°F1.9°C 32.6°F0.3°C 89% Calm Calm 1.2 mph1.9 kmh 29.54 in1000.3 mb - 0.00 in0.0 mm 0.00 in0.0 mm
09:00 PM 35.4°F1.9°C 32.5°F0.3°C 89% Calm Calm -- 29.54 in1000.3 mb - 0.00 in0.0 mm 0.00 in0.0 mm
09:10 PM 35.3°F1.8°C 32.4°F0.2°C 89% Calm Calm -- 29.54 in1000.3 mb - 0.00 in0.0 mm 0.00 in0.0 mm
09:20 PM 35.4°F1.9°C 32.5°F0.3°C 89% Calm Calm -- 29.53 in1000.0 mb - 0.00 in0.0 mm 0.00 in0.0 mm
09:30 PM 35.4°F1.9°C 32.5°F0.3°C 89% Calm Calm -- 29.53 in1000.0 mb - 0.01 in0.3 mm 0.01 in0.3 mm
09:40 PM 35.3°F1.8°C 32.4°F0.2°C 89% Calm Calm -- 29.52 in999.7 mb - 0.01 in0.3 mm 0.01 in0.3 mm
09:50 PM 35.3°F1.8°C 32.6°F0.3°C 90% Calm Calm -- 29.53 in1000.0 mb - 0.00 in0.0 mm 0.01 in0.3 mm
10:00 PM 35.3°F1.8°C 32.7°F0.4°C 90% Calm Calm -- 29.53 in1000.0 mb - 0.00 in0.0 mm 0.01 in0.3 mm
10:10 PM 35.4°F1.9°C 32.8°F0.4°C 90% Calm Calm -- 29.54 in1000.3 mb - 0.00 in0.0 mm 0.01 in0.3 mm
10:20 PM 35.5°F1.9°C 32.9°F0.5°C 90% Calm Calm -- 29.54 in1000.3 mb - 0.00 in0.0 mm 0.01 in0.3 mm
10:30 PM 35.5°F1.9°C 32.9°F0.5°C 90% Calm Calm -- 29.54 in1000.3 mb - 0.00 in0.0 mm 0.01 in0.3 mm
10:40 PM 35.5°F1.9°C 32.9°F0.5°C 90% Calm Calm -- 29.54 in1000.3 mb - 0.00 in0.0 mm 0.01 in0.3 mm
10:50 PM 35.5°F1.9°C 32.9°F0.5°C 90% Calm Calm -- 29.55 in1000.7 mb - 0.00 in0.0 mm 0.01 in0.3 mm
11:00 PM 35.5°F1.9°C 32.9°F0.5°C 90% Calm Calm -- 29.54 in1000.3 mb - 0.00 in0.0 mm 0.01 in0.3 mm
11:10 PM 35.4°F1.9°C 32.8°F0.4°C 90% Calm Calm -- 29.54 in1000.3 mb - 0.00 in0.0 mm 0.01 in0.3 mm
11:20 PM 35.3°F1.8°C 32.7°F0.4°C 90% Calm Calm -- 29.54 in1000.3 mb - 0.00 in0.0 mm 0.01 in0.3 mm
11:30 PM 35.2°F1.8°C 32.6°F0.3°C 90% Calm Calm -- 29.54 in1000.3 mb - 0.00 in0.0 mm 0.01 in0.3 mm
11:40 PM 35.3°F1.8°C 32.7°F0.4°C 90% Calm Calm -- 29.55 in1000.7 mb - 0.00 in0.0 mm 0.01 in0.3 mm
11:50 PM 35.5°F1.9°C 32.9°F0.5°C 90% Calm Calm -- 29.55 in1000.7 mb - 0.00 in0.0 mm 0.01 in0.3 mm